LGW weather

London Gatwick Airport
London, England, United Kingdom

Public forecast

Using degrees Celsius for public forecast. Weather courtesy of forecast.io.

Current aviation weather report (METAR) for London Gatwick Airport

Retrieved 2019/10/17 05:20 UTC (0 seconds ago):

EGKK 170520Z 10001KT CAVOK 08/08 Q1007

Aviation forecast (TAF) for London Gatwick Airport

Retrieved 2019-10-17 00:00 UTC (5 hours ago):

TAF EGKK 162256Z 1700/1806 VRB03KT 9999 FEW030 PROB30 TEMPO 1700/1708 5000 BR BECMG 1709/1712 18010KT TEMPO 1709/1718 7000 SHRA PROB30 TEMPO 1711/1717 20015G25KT 4000 +SHRA BKN014 PROB40 TEMPO 1721/1724 7000 SHRA PROB40 TEMPO 1800/1806 20015G25KT 4000 +SHRA BKN014CB